sensor_id;sensor_type;location;lat;lon;timestamp;P1;durP1;ratioP1;P2;durP2;ratioP2
35324;SDS011;35135;47.510;19.036;2022-09-09T00:15:20;1.38;;;0.70;;
35324;SDS011;35135;47.510;19.036;2022-09-09T00:18:22;1.45;;;0.60;;
35324;SDS011;35135;47.510;19.036;2022-09-09T00:21:34;0.70;;;0.68;;
35324;SDS011;35135;47.510;19.036;2022-09-09T00:24:09;1.85;;;0.77;;
35324;SDS011;35135;47.510;19.036;2022-09-09T00:26:51;1.17;;;0.70;;
35324;SDS011;35135;47.510;19.036;2022-09-09T00:32:27;1.05;;;0.70;;
35324;SDS011;35135;47.510;19.036;2022-09-09T00:35:14;0.88;;;0.68;;
35324;SDS011;35135;47.510;19.036;2022-09-09T00:38:11;0.95;;;0.70;;
35324;SDS011;35135;47.510;19.036;2022-09-09T00:43:46;1.00;;;0.70;;
35324;SDS011;35135;47.510;19.036;2022-09-09T00:57:30;1.23;;;0.90;;
35324;SDS011;35135;47.510;19.036;2022-09-09T01:00:17;0.63;;;0.60;;
35324;SDS011;35135;47.510;19.036;2022-09-09T01:06:11;1.48;;;0.80;;
35324;SDS011;35135;47.510;19.036;2022-09-09T01:11:55;0.77;;;0.55;;
35324;SDS011;35135;47.510;19.036;2022-09-09T01:14:44;1.85;;;1.00;;
35324;SDS011;35135;47.510;19.036;2022-09-09T01:17:22;1.17;;;0.88;;
35324;SDS011;35135;47.510;19.036;2022-09-09T01:28:26;0.93;;;0.55;;
35324;SDS011;35135;47.510;19.036;2022-09-09T01:30:53;0.80;;;0.60;;
35324;SDS011;35135;47.510;19.036;2022-09-09T01:33:22;1.02;;;0.90;;
35324;SDS011;35135;47.510;19.036;2022-09-09T01:38:20;1.63;;;1.00;;
35324;SDS011;35135;47.510;19.036;2022-09-09T01:40:48;0.95;;;0.85;;
35324;SDS011;35135;47.510;19.036;2022-09-09T01:43:18;0.82;;;0.80;;
35324;SDS011;35135;47.510;19.036;2022-09-09T01:45:52;1.85;;;0.88;;
35324;SDS011;35135;47.510;19.036;2022-09-09T01:48:22;1.17;;;0.80;;
35324;SDS011;35135;47.510;19.036;2022-09-09T01:50:50;1.42;;;0.77;;
35324;SDS011;35135;47.510;19.036;2022-09-09T01:53:19;2.38;;;0.82;;
35324;SDS011;35135;47.510;19.036;2022-09-09T01:55:55;1.40;;;0.85;;
35324;SDS011;35135;47.510;19.036;2022-09-09T01:58:32;1.50;;;0.98;;
35324;SDS011;35135;47.510;19.036;2022-09-09T02:04:38;2.22;;;1.20;;
35324;SDS011;35135;47.510;19.036;2022-09-09T02:07:15;1.20;;;0.70;;
35324;SDS011;35135;47.510;19.036;2022-09-09T02:13:07;2.85;;;1.10;;
35324;SDS011;35135;47.510;19.036;2022-09-09T02:18:14;1.65;;;0.80;;
35324;SDS011;35135;47.510;19.036;2022-09-09T02:20:51;1.42;;;0.65;;
35324;SDS011;35135;47.510;19.036;2022-09-09T02:23:23;2.70;;;0.98;;
35324;SDS011;35135;47.510;19.036;2022-09-09T02:25:53;1.23;;;0.90;;
35324;SDS011;35135;47.510;19.036;2022-09-09T02:28:26;1.75;;;0.70;;
35324;SDS011;35135;47.510;19.036;2022-09-09T02:30:59;0.85;;;0.85;;
35324;SDS011;35135;47.510;19.036;2022-09-09T02:33:30;0.93;;;0.60;;
35324;SDS011;35135;47.510;19.036;2022-09-09T02:36:07;2.42;;;0.63;;
35324;SDS011;35135;47.510;19.036;2022-09-09T02:38:50;3.08;;;0.88;;
35324;SDS011;35135;47.510;19.036;2022-09-09T02:44:17;1.02;;;0.80;;
35324;SDS011;35135;47.510;19.036;2022-09-09T02:50:12;2.78;;;0.82;;
35324;SDS011;35135;47.510;19.036;2022-09-09T02:58:09;2.03;;;0.70;;
35324;SDS011;35135;47.510;19.036;2022-09-09T03:00:38;0.70;;;0.60;;
35324;SDS011;35135;47.510;19.036;2022-09-09T03:03:07;1.27;;;1.08;;
35324;SDS011;35135;47.510;19.036;2022-09-09T03:05:37;1.05;;;0.70;;
35324;SDS011;35135;47.510;19.036;2022-09-09T03:08:05;1.02;;;0.85;;
35324;SDS011;35135;47.510;19.036;2022-09-09T03:10:33;0.95;;;0.88;;
35324;SDS011;35135;47.510;19.036;2022-09-09T03:13:02;1.17;;;0.65;;
35324;SDS011;35135;47.510;19.036;2022-09-09T03:15:32;1.33;;;0.80;;
35324;SDS011;35135;47.510;19.036;2022-09-09T03:18:00;1.50;;;0.70;;
35324;SDS011;35135;47.510;19.036;2022-09-09T03:20:27;1.30;;;0.90;;
35324;SDS011;35135;47.510;19.036;2022-09-09T03:22:57;1.55;;;0.73;;
35324;SDS011;35135;47.510;19.036;2022-09-09T03:25:25;2.28;;;0.90;;
35324;SDS011;35135;47.510;19.036;2022-09-09T03:27:54;1.30;;;0.90;;
35324;SDS011;35135;47.510;19.036;2022-09-09T03:30:21;0.80;;;0.73;;
35324;SDS011;35135;47.510;19.036;2022-09-09T03:32:49;0.95;;;0.73;;
35324;SDS011;35135;47.510;19.036;2022-09-09T03:35:19;1.35;;;0.80;;
35324;SDS011;35135;47.510;19.036;2022-09-09T03:37:45;1.35;;;1.05;;
35324;SDS011;35135;47.510;19.036;2022-09-09T03:40:11;1.83;;;1.00;;
35324;SDS011;35135;47.510;19.036;2022-09-09T03:42:39;1.08;;;0.75;;
35324;SDS011;35135;47.510;19.036;2022-09-09T03:45:08;1.20;;;0.50;;
35324;SDS011;35135;47.510;19.036;2022-09-09T03:47:35;0.85;;;0.85;;
35324;SDS011;35135;47.510;19.036;2022-09-09T03:50:04;2.05;;;0.93;;
35324;SDS011;35135;47.510;19.036;2022-09-09T03:52:35;2.20;;;0.90;;
35324;SDS011;35135;47.510;19.036;2022-09-09T03:55:03;0.82;;;0.65;;
35324;SDS011;35135;47.510;19.036;2022-09-09T03:57:32;1.10;;;0.70;;
35324;SDS011;35135;47.510;19.036;2022-09-09T04:00:05;0.65;;;0.50;;
35324;SDS011;35135;47.510;19.036;2022-09-09T04:02:32;0.50;;;0.50;;
35324;SDS011;35135;47.510;19.036;2022-09-09T04:04:58;0.90;;;0.70;;
35324;SDS011;35135;47.510;19.036;2022-09-09T04:07:24;6.03;;;0.68;;
35324;SDS011;35135;47.510;19.036;2022-09-09T04:09:52;1.45;;;0.60;;
35324;SDS011;35135;47.510;19.036;2022-09-09T04:12:20;1.15;;;0.60;;
35324;SDS011;35135;47.510;19.036;2022-09-09T04:14:46;0.70;;;0.60;;
35324;SDS011;35135;47.510;19.036;2022-09-09T04:17:15;1.50;;;0.65;;
35324;SDS011;35135;47.510;19.036;2022-09-09T04:19:42;2.72;;;0.80;;
35324;SDS011;35135;47.510;19.036;2022-09-09T04:22:16;1.70;;;0.60;;
35324;SDS011;35135;47.510;19.036;2022-09-09T04:24:44;1.50;;;0.88;;
35324;SDS011;35135;47.510;19.036;2022-09-09T04:27:13;0.95;;;0.70;;
35324;SDS011;35135;47.510;19.036;2022-09-09T04:29:40;1.23;;;0.63;;
35324;SDS011;35135;47.510;19.036;2022-09-09T04:32:08;1.10;;;0.80;;
35324;SDS011;35135;47.510;19.036;2022-09-09T04:34:39;1.00;;;0.60;;
35324;SDS011;35135;47.510;19.036;2022-09-09T04:37:07;1.05;;;0.60;;
35324;SDS011;35135;47.510;19.036;2022-09-09T04:39:34;0.98;;;0.85;;
35324;SDS011;35135;47.510;19.036;2022-09-09T04:42:02;1.25;;;0.90;;
35324;SDS011;35135;47.510;19.036;2022-09-09T04:44:31;2.05;;;0.85;;
35324;SDS011;35135;47.510;19.036;2022-09-09T04:46:58;2.13;;;0.88;;
35324;SDS011;35135;47.510;19.036;2022-09-09T04:49:31;2.17;;;0.98;;
35324;SDS011;35135;47.510;19.036;2022-09-09T04:51:57;1.00;;;0.90;;
35324;SDS011;35135;47.510;19.036;2022-09-09T04:54:26;1.40;;;1.15;;
35324;SDS011;35135;47.510;19.036;2022-09-09T04:56:54;1.48;;;1.20;;
35324;SDS011;35135;47.510;19.036;2022-09-09T04:59:21;4.35;;;1.30;;
35324;SDS011;35135;47.510;19.036;2022-09-09T05:01:49;3.15;;;1.42;;
35324;SDS011;35135;47.510;19.036;2022-09-09T05:04:18;1.88;;;1.50;;
35324;SDS011;35135;47.510;19.036;2022-09-09T05:06:46;4.00;;;2.60;;
35324;SDS011;35135;47.510;19.036;2022-09-09T05:09:12;2.92;;;1.60;;
35324;SDS011;35135;47.510;19.036;2022-09-09T05:11:38;4.13;;;1.70;;
35324;SDS011;35135;47.510;19.036;2022-09-09T05:14:12;4.93;;;2.15;;
35324;SDS011;35135;47.510;19.036;2022-09-09T05:16:42;2.40;;;1.48;;
35324;SDS011;35135;47.510;19.036;2022-09-09T05:19:13;2.63;;;1.90;;
35324;SDS011;35135;47.510;19.036;2022-09-09T05:21:40;4.65;;;1.40;;
35324;SDS011;35135;47.510;19.036;2022-09-09T05:24:07;2.28;;;1.30;;
35324;SDS011;35135;47.510;19.036;2022-09-09T05:26:33;3.80;;;1.20;;
35324;SDS011;35135;47.510;19.036;2022-09-09T05:28:59;5.30;;;1.70;;
35324;SDS011;35135;47.510;19.036;2022-09-09T05:31:26;3.70;;;1.30;;
35324;SDS011;35135;47.510;19.036;2022-09-09T05:33:56;3.67;;;1.42;;
35324;SDS011;35135;47.510;19.036;2022-09-09T05:36:25;1.67;;;1.20;;
35324;SDS011;35135;47.510;19.036;2022-09-09T05:38:52;4.63;;;1.20;;
35324;SDS011;35135;47.510;19.036;2022-09-09T05:41:22;7.20;;;1.48;;
35324;SDS011;35135;47.510;19.036;2022-09-09T05:43:48;5.72;;;1.55;;
35324;SDS011;35135;47.510;19.036;2022-09-09T05:46:18;3.10;;;1.40;;
35324;SDS011;35135;47.510;19.036;2022-09-09T05:48:48;2.85;;;1.10;;
35324;SDS011;35135;47.510;19.036;2022-09-09T05:51:18;3.78;;;1.13;;
35324;SDS011;35135;47.510;19.036;2022-09-09T05:53:48;5.30;;;1.50;;
35324;SDS011;35135;47.510;19.036;2022-09-09T05:56:34;1.98;;;1.20;;
35324;SDS011;35135;47.510;19.036;2022-09-09T05:59:00;3.47;;;1.10;;
35324;SDS011;35135;47.510;19.036;2022-09-09T06:01:27;4.38;;;1.10;;
35324;SDS011;35135;47.510;19.036;2022-09-09T06:03:57;7.87;;;1.43;;
35324;SDS011;35135;47.510;19.036;2022-09-09T06:06:27;5.57;;;1.30;;
35324;SDS011;35135;47.510;19.036;2022-09-09T06:09:02;4.13;;;1.20;;
35324;SDS011;35135;47.510;19.036;2022-09-09T06:11:34;3.42;;;1.08;;
35324;SDS011;35135;47.510;19.036;2022-09-09T06:14:01;4.43;;;1.33;;
35324;SDS011;35135;47.510;19.036;2022-09-09T06:16:27;3.42;;;1.25;;
35324;SDS011;35135;47.510;19.036;2022-09-09T06:18:54;1.80;;;1.35;;
35324;SDS011;35135;47.510;19.036;2022-09-09T06:21:22;4.28;;;1.60;;
35324;SDS011;35135;47.510;19.036;2022-09-09T06:23:53;2.80;;;1.58;;
35324;SDS011;35135;47.510;19.036;2022-09-09T06:26:22;3.92;;;1.02;;
35324;SDS011;35135;47.510;19.036;2022-09-09T06:28:52;3.17;;;1.33;;
35324;SDS011;35135;47.510;19.036;2022-09-09T06:31:19;3.28;;;1.30;;
35324;SDS011;35135;47.510;19.036;2022-09-09T06:33:51;10.73;;;1.45;;
35324;SDS011;35135;47.510;19.036;2022-09-09T06:36:34;2.45;;;1.25;;
35324;SDS011;35135;47.510;19.036;2022-09-09T06:39:03;1.17;;;0.93;;
35324;SDS011;35135;47.510;19.036;2022-09-09T06:41:30;6.20;;;1.20;;
35324;SDS011;35135;47.510;19.036;2022-09-09T06:43:58;2.33;;;0.98;;
35324;SDS011;35135;47.510;19.036;2022-09-09T06:46:28;4.05;;;1.42;;
35324;SDS011;35135;47.510;19.036;2022-09-09T06:48:58;1.50;;;1.20;;
35324;SDS011;35135;47.510;19.036;2022-09-09T06:51:32;2.10;;;1.27;;
35324;SDS011;35135;47.510;19.036;2022-09-09T06:54:08;1.48;;;0.93;;
35324;SDS011;35135;47.510;19.036;2022-09-09T06:56:37;2.95;;;1.05;;
35324;SDS011;35135;47.510;19.036;2022-09-09T07:01:36;2.08;;;0.90;;
35324;SDS011;35135;47.510;19.036;2022-09-09T07:04:05;1.48;;;1.10;;
35324;SDS011;35135;47.510;19.036;2022-09-09T07:06:35;2.53;;;1.00;;
35324;SDS011;35135;47.510;19.036;2022-09-09T07:09:07;4.07;;;1.10;;
35324;SDS011;35135;47.510;19.036;2022-09-09T07:11:42;3.72;;;1.23;;
35324;SDS011;35135;47.510;19.036;2022-09-09T07:14:10;3.17;;;1.33;;
35324;SDS011;35135;47.510;19.036;2022-09-09T07:16:39;2.60;;;1.17;;
35324;SDS011;35135;47.510;19.036;2022-09-09T07:19:05;3.40;;;1.23;;
35324;SDS011;35135;47.510;19.036;2022-09-09T07:21:32;2.08;;;0.98;;
35324;SDS011;35135;47.510;19.036;2022-09-09T07:23:59;3.28;;;1.30;;
35324;SDS011;35135;47.510;19.036;2022-09-09T07:26:26;2.88;;;1.45;;
35324;SDS011;35135;47.510;19.036;2022-09-09T07:28:54;3.28;;;1.27;;
35324;SDS011;35135;47.510;19.036;2022-09-09T07:31:26;2.45;;;1.17;;
35324;SDS011;35135;47.510;19.036;2022-09-09T07:33:55;2.33;;;1.15;;
35324;SDS011;35135;47.510;19.036;2022-09-09T07:36:26;3.83;;;1.33;;
35324;SDS011;35135;47.510;19.036;2022-09-09T07:38:55;4.00;;;1.48;;
35324;SDS011;35135;47.510;19.036;2022-09-09T07:41:25;2.10;;;1.45;;
35324;SDS011;35135;47.510;19.036;2022-09-09T07:43:54;2.22;;;1.52;;
35324;SDS011;35135;47.510;19.036;2022-09-09T07:46:21;3.15;;;1.45;;
35324;SDS011;35135;47.510;19.036;2022-09-09T07:48:49;2.50;;;1.45;;
35324;SDS011;35135;47.510;19.036;2022-09-09T07:51:21;1.85;;;1.50;;
35324;SDS011;35135;47.510;19.036;2022-09-09T07:53:55;2.20;;;1.50;;
35324;SDS011;35135;47.510;19.036;2022-09-09T07:56:27;3.85;;;1.25;;
35324;SDS011;35135;47.510;19.036;2022-09-09T07:58:55;2.70;;;1.20;;
35324;SDS011;35135;47.510;19.036;2022-09-09T08:01:25;3.28;;;1.30;;
35324;SDS011;35135;47.510;19.036;2022-09-09T08:03:54;3.42;;;1.20;;
35324;SDS011;35135;47.510;19.036;2022-09-09T08:06:24;2.25;;;1.25;;
35324;SDS011;35135;47.510;19.036;2022-09-09T08:08:51;2.30;;;0.93;;
35324;SDS011;35135;47.510;19.036;2022-09-09T08:11:20;3.53;;;1.45;;
35324;SDS011;35135;47.510;19.036;2022-09-09T08:13:48;3.42;;;1.20;;
35324;SDS011;35135;47.510;19.036;2022-09-09T08:16:17;4.03;;;1.45;;
35324;SDS011;35135;47.510;19.036;2022-09-09T08:18:48;1.30;;;1.00;;
35324;SDS011;35135;47.510;19.036;2022-09-09T08:21:18;3.33;;;1.30;;
35324;SDS011;35135;47.510;19.036;2022-09-09T08:23:47;3.47;;;0.95;;
35324;SDS011;35135;47.510;19.036;2022-09-09T08:26:16;1.27;;;1.00;;
35324;SDS011;35135;47.510;19.036;2022-09-09T08:31:18;1.92;;;1.20;;
35324;SDS011;35135;47.510;19.036;2022-09-09T08:36:20;4.05;;;1.42;;
35324;SDS011;35135;47.510;19.036;2022-09-09T08:38:47;3.45;;;1.23;;
35324;SDS011;35135;47.510;19.036;2022-09-09T08:47:42;1.13;;;0.90;;
35324;SDS011;35135;47.510;19.036;2022-09-09T08:52:50;2.63;;;1.00;;
35324;SDS011;35135;47.510;19.036;2022-09-09T08:55:49;1.83;;;1.20;;
35324;SDS011;35135;47.510;19.036;2022-09-09T08:58:19;2.45;;;1.00;;
35324;SDS011;35135;47.510;19.036;2022-09-09T09:00:58;1.10;;;0.90;;
35324;SDS011;35135;47.510;19.036;2022-09-09T09:06:24;2.58;;;1.00;;
35324;SDS011;35135;47.510;19.036;2022-09-09T09:11:48;5.13;;;1.30;;
35324;SDS011;35135;47.510;19.036;2022-09-09T09:19:33;1.67;;;1.00;;
35324;SDS011;35135;47.510;19.036;2022-09-09T09:22:06;3.33;;;1.25;;
35324;SDS011;35135;47.510;19.036;2022-09-09T09:25:14;1.60;;;0.98;;
35324;SDS011;35135;47.510;19.036;2022-09-09T09:27:51;1.73;;;1.00;;
35324;SDS011;35135;47.510;19.036;2022-09-09T09:30:35;2.75;;;1.15;;
35324;SDS011;35135;47.510;19.036;2022-09-09T09:36:39;1.40;;;0.90;;
35324;SDS011;35135;47.510;19.036;2022-09-09T09:39:22;1.35;;;0.90;;
35324;SDS011;35135;47.510;19.036;2022-09-09T09:41:53;1.50;;;1.00;;
35324;SDS011;35135;47.510;19.036;2022-09-09T09:44:37;2.30;;;0.98;;
35324;SDS011;35135;47.510;19.036;2022-09-09T09:47:23;1.52;;;1.00;;
35324;SDS011;35135;47.510;19.036;2022-09-09T09:49:56;2.15;;;0.80;;
35324;SDS011;35135;47.510;19.036;2022-09-09T09:52:25;1.38;;;0.77;;
35324;SDS011;35135;47.510;19.036;2022-09-09T09:54:54;1.00;;;0.90;;
35324;SDS011;35135;47.510;19.036;2022-09-09T09:57:39;1.35;;;0.90;;
35324;SDS011;35135;47.510;19.036;2022-09-09T10:02:39;1.48;;;0.80;;
35324;SDS011;35135;47.510;19.036;2022-09-09T10:07:45;1.95;;;1.00;;
35324;SDS011;35135;47.510;19.036;2022-09-09T10:10:13;0.88;;;0.80;;
35324;SDS011;35135;47.510;19.036;2022-09-09T10:12:58;1.40;;;1.00;;
35324;SDS011;35135;47.510;19.036;2022-09-09T10:32:38;1.95;;;0.77;;
35324;SDS011;35135;47.510;19.036;2022-09-09T10:35:26;3.83;;;0.80;;
35324;SDS011;35135;47.510;19.036;2022-09-09T10:38:24;1.00;;;0.90;;
35324;SDS011;35135;47.510;19.036;2022-09-09T10:43:48;2.50;;;0.93;;
35324;SDS011;35135;47.510;19.036;2022-09-09T10:46:46;2.25;;;0.93;;
35324;SDS011;35135;47.510;19.036;2022-09-09T10:55:15;0.70;;;0.70;;
35324;SDS011;35135;47.510;19.036;2022-09-09T10:57:55;1.77;;;0.80;;
35324;SDS011;35135;47.510;19.036;2022-09-09T11:00:29;1.02;;;0.70;;
35324;SDS011;35135;47.510;19.036;2022-09-09T11:03:04;1.08;;;0.90;;
35324;SDS011;35135;47.510;19.036;2022-09-09T11:05:42;2.10;;;1.13;;
35324;SDS011;35135;47.510;19.036;2022-09-09T11:08:21;1.30;;;0.68;;
35324;SDS011;35135;47.510;19.036;2022-09-09T11:11:04;2.63;;;0.80;;
35324;SDS011;35135;47.510;19.036;2022-09-09T11:21:48;0.65;;;0.65;;
35324;SDS011;35135;47.510;19.036;2022-09-09T11:29:32;1.83;;;0.90;;
35324;SDS011;35135;47.510;19.036;2022-09-09T11:32:27;2.35;;;0.70;;
35324;SDS011;35135;47.510;19.036;2022-09-09T11:38:00;0.82;;;0.80;;
35324;SDS011;35135;47.510;19.036;2022-09-09T11:40:32;1.55;;;0.80;;
35324;SDS011;35135;47.510;19.036;2022-09-09T11:43:11;1.38;;;0.98;;
35324;SDS011;35135;47.510;19.036;2022-09-09T11:45:39;1.20;;;0.90;;
35324;SDS011;35135;47.510;19.036;2022-09-09T11:48:22;1.60;;;0.70;;
35324;SDS011;35135;47.510;19.036;2022-09-09T11:50:59;1.00;;;0.80;;
35324;SDS011;35135;47.510;19.036;2022-09-09T11:53:32;1.02;;;0.80;;
35324;SDS011;35135;47.510;19.036;2022-09-09T11:58:57;0.88;;;0.60;;
35324;SDS011;35135;47.510;19.036;2022-09-09T12:01:44;1.00;;;0.70;;
35324;SDS011;35135;47.510;19.036;2022-09-09T12:04:17;1.67;;;0.80;;
35324;SDS011;35135;47.510;19.036;2022-09-09T12:14:54;1.45;;;0.93;;
35324;SDS011;35135;47.510;19.036;2022-09-09T12:17:25;0.80;;;0.68;;
35324;SDS011;35135;47.510;19.036;2022-09-09T12:20:03;1.77;;;0.85;;
35324;SDS011;35135;47.510;19.036;2022-09-09T12:28:17;2.78;;;1.23;;
35324;SDS011;35135;47.510;19.036;2022-09-09T12:33:43;1.05;;;0.73;;
35324;SDS011;35135;47.510;19.036;2022-09-09T12:36:27;2.45;;;0.90;;
35324;SDS011;35135;47.510;19.036;2022-09-09T12:38:59;1.00;;;0.68;;
35324;SDS011;35135;47.510;19.036;2022-09-09T12:42:01;1.60;;;0.70;;
35324;SDS011;35135;47.510;19.036;2022-09-09T12:44:29;1.67;;;0.70;;
35324;SDS011;35135;47.510;19.036;2022-09-09T12:46:55;2.35;;;0.88;;
35324;SDS011;35135;47.510;19.036;2022-09-09T12:49:32;1.27;;;0.70;;
35324;SDS011;35135;47.510;19.036;2022-09-09T12:52:07;1.95;;;0.73;;
35324;SDS011;35135;47.510;19.036;2022-09-09T12:54:43;1.48;;;0.82;;
35324;SDS011;35135;47.510;19.036;2022-09-09T12:57:13;2.25;;;0.75;;
35324;SDS011;35135;47.510;19.036;2022-09-09T12:59:41;0.93;;;0.70;;
35324;SDS011;35135;47.510;19.036;2022-09-09T13:02:18;1.15;;;0.70;;
35324;SDS011;35135;47.510;19.036;2022-09-09T13:04:52;2.65;;;0.98;;
35324;SDS011;35135;47.510;19.036;2022-09-09T13:07:21;0.98;;;0.65;;
35324;SDS011;35135;47.510;19.036;2022-09-09T13:09:48;0.85;;;0.80;;
35324;SDS011;35135;47.510;19.036;2022-09-09T13:12:21;3.92;;;1.25;;
35324;SDS011;35135;47.510;19.036;2022-09-09T13:14:49;1.85;;;0.90;;
35324;SDS011;35135;47.510;19.036;2022-09-09T13:17:21;1.05;;;0.88;;
35324;SDS011;35135;47.510;19.036;2022-09-09T13:19:54;1.33;;;0.88;;
35324;SDS011;35135;47.510;19.036;2022-09-09T13:22:33;1.02;;;0.65;;
35324;SDS011;35135;47.510;19.036;2022-09-09T13:25:16;1.27;;;1.10;;
35324;SDS011;35135;47.510;19.036;2022-09-09T13:27:56;3.50;;;0.90;;
35324;SDS011;35135;47.510;19.036;2022-09-09T13:35:49;2.38;;;0.85;;
35324;SDS011;35135;47.510;19.036;2022-09-09T13:38:54;2.67;;;0.70;;
35324;SDS011;35135;47.510;19.036;2022-09-09T13:41:36;1.50;;;0.70;;
35324;SDS011;35135;47.510;19.036;2022-09-09T13:44:23;1.65;;;0.80;;
35324;SDS011;35135;47.510;19.036;2022-09-09T13:49:46;6.85;;;0.98;;
35324;SDS011;35135;47.510;19.036;2022-09-09T13:52:13;3.42;;;0.70;;
35324;SDS011;35135;47.510;19.036;2022-09-09T13:54:48;2.00;;;0.70;;
35324;SDS011;35135;47.510;19.036;2022-09-09T13:57:22;4.13;;;0.93;;
35324;SDS011;35135;47.510;19.036;2022-09-09T13:59:51;8.75;;;1.58;;
35324;SDS011;35135;47.510;19.036;2022-09-09T14:02:19;5.53;;;1.10;;
35324;SDS011;35135;47.510;19.036;2022-09-09T14:04:46;6.72;;;1.23;;
35324;SDS011;35135;47.510;19.036;2022-09-09T14:07:16;5.05;;;1.02;;
35324;SDS011;35135;47.510;19.036;2022-09-09T14:09:43;3.95;;;1.02;;
35324;SDS011;35135;47.510;19.036;2022-09-09T14:12:13;3.42;;;0.80;;
35324;SDS011;35135;47.510;19.036;2022-09-09T14:14:40;2.88;;;0.90;;
35324;SDS011;35135;47.510;19.036;2022-09-09T14:17:07;4.97;;;1.17;;
35324;SDS011;35135;47.510;19.036;2022-09-09T14:19:34;4.72;;;1.17;;
35324;SDS011;35135;47.510;19.036;2022-09-09T14:22:02;4.80;;;0.85;;
35324;SDS011;35135;47.510;19.036;2022-09-09T14:24:29;1.40;;;0.90;;
35324;SDS011;35135;47.510;19.036;2022-09-09T14:26:58;2.00;;;0.85;;
35324;SDS011;35135;47.510;19.036;2022-09-09T14:29:24;5.90;;;1.13;;
35324;SDS011;35135;47.510;19.036;2022-09-09T14:31:51;1.95;;;0.80;;
35324;SDS011;35135;47.510;19.036;2022-09-09T14:34:17;2.72;;;1.00;;
35324;SDS011;35135;47.510;19.036;2022-09-09T14:36:43;1.77;;;0.85;;
35324;SDS011;35135;47.510;19.036;2022-09-09T14:39:10;3.42;;;0.90;;
35324;SDS011;35135;47.510;19.036;2022-09-09T14:41:36;2.75;;;0.60;;
35324;SDS011;35135;47.510;19.036;2022-09-09T14:44:03;2.10;;;0.80;;
35324;SDS011;35135;47.510;19.036;2022-09-09T14:46:30;4.32;;;0.98;;
35324;SDS011;35135;47.510;19.036;2022-09-09T14:48:57;4.85;;;1.10;;
35324;SDS011;35135;47.510;19.036;2022-09-09T14:51:24;6.63;;;0.70;;
35324;SDS011;35135;47.510;19.036;2022-09-09T14:53:57;4.22;;;0.73;;
35324;SDS011;35135;47.510;19.036;2022-09-09T14:56:25;2.90;;;0.77;;
35324;SDS011;35135;47.510;19.036;2022-09-09T14:58:55;5.47;;;1.15;;
35324;SDS011;35135;47.510;19.036;2022-09-09T15:01:23;4.05;;;0.88;;
35324;SDS011;35135;47.510;19.036;2022-09-09T15:03:53;5.90;;;0.90;;
35324;SDS011;35135;47.510;19.036;2022-09-09T15:06:22;18.08;;;2.28;;
35324;SDS011;35135;47.510;19.036;2022-09-09T15:08:51;7.65;;;1.63;;
35324;SDS011;35135;47.510;19.036;2022-09-09T15:11:29;9.93;;;1.27;;
35324;SDS011;35135;47.510;19.036;2022-09-09T15:14:03;6.57;;;1.17;;
35324;SDS011;35135;47.510;19.036;2022-09-09T15:16:30;5.45;;;0.88;;
35324;SDS011;35135;47.510;19.036;2022-09-09T15:19:00;5.10;;;1.10;;
35324;SDS011;35135;47.510;19.036;2022-09-09T15:21:28;13.05;;;1.50;;
35324;SDS011;35135;47.510;19.036;2022-09-09T15:24:00;7.65;;;1.20;;
35324;SDS011;35135;47.510;19.036;2022-09-09T15:26:26;3.50;;;1.08;;
35324;SDS011;35135;47.510;19.036;2022-09-09T15:28:53;2.63;;;0.80;;
35324;SDS011;35135;47.510;19.036;2022-09-09T15:31:21;3.72;;;1.00;;
35324;SDS011;35135;47.510;19.036;2022-09-09T15:33:54;4.55;;;0.90;;
35324;SDS011;35135;47.510;19.036;2022-09-09T15:36:34;5.38;;;0.80;;
35324;SDS011;35135;47.510;19.036;2022-09-09T15:39:03;1.75;;;0.70;;
35324;SDS011;35135;47.510;19.036;2022-09-09T15:41:33;3.38;;;0.63;;
35324;SDS011;35135;47.510;19.036;2022-09-09T15:44:06;3.55;;;0.77;;
35324;SDS011;35135;47.510;19.036;2022-09-09T15:46:33;0.95;;;0.43;;
35324;SDS011;35135;47.510;19.036;2022-09-09T15:51:41;2.47;;;0.80;;
35324;SDS011;35135;47.510;19.036;2022-09-09T15:54:12;4.13;;;1.10;;
35324;SDS011;35135;47.510;19.036;2022-09-09T15:56:41;2.03;;;0.93;;
35324;SDS011;35135;47.510;19.036;2022-09-09T15:59:07;1.05;;;0.70;;
35324;SDS011;35135;47.510;19.036;2022-09-09T16:01:36;1.75;;;0.73;;
35324;SDS011;35135;47.510;19.036;2022-09-09T16:04:04;1.77;;;0.77;;
35324;SDS011;35135;47.510;19.036;2022-09-09T16:06:31;2.53;;;0.80;;
35324;SDS011;35135;47.510;19.036;2022-09-09T16:08:59;1.95;;;0.50;;
35324;SDS011;35135;47.510;19.036;2022-09-09T16:11:29;1.95;;;0.63;;
35324;SDS011;35135;47.510;19.036;2022-09-09T16:13:58;2.05;;;0.65;;
35324;SDS011;35135;47.510;19.036;2022-09-09T16:16:28;2.67;;;0.80;;
35324;SDS011;35135;47.510;19.036;2022-09-09T16:18:56;2.85;;;0.80;;
35324;SDS011;35135;47.510;19.036;2022-09-09T16:21:28;2.13;;;0.93;;
35324;SDS011;35135;47.510;19.036;2022-09-09T16:23:57;2.38;;;0.95;;
35324;SDS011;35135;47.510;19.036;2022-09-09T16:26:25;1.38;;;0.85;;
35324;SDS011;35135;47.510;19.036;2022-09-09T16:28:53;1.25;;;0.70;;
35324;SDS011;35135;47.510;19.036;2022-09-09T16:31:23;0.80;;;0.70;;
35324;SDS011;35135;47.510;19.036;2022-09-09T16:33:49;1.08;;;0.60;;
35324;SDS011;35135;47.510;19.036;2022-09-09T16:36:17;2.53;;;0.90;;
35324;SDS011;35135;47.510;19.036;2022-09-09T16:38:47;0.90;;;0.80;;
35324;SDS011;35135;47.510;19.036;2022-09-09T16:41:18;1.10;;;0.63;;
35324;SDS011;35135;47.510;19.036;2022-09-09T16:43:45;2.25;;;0.80;;
35324;SDS011;35135;47.510;19.036;2022-09-09T16:46:17;4.30;;;0.80;;
35324;SDS011;35135;47.510;19.036;2022-09-09T16:48:45;1.02;;;0.63;;
35324;SDS011;35135;47.510;19.036;2022-09-09T16:53:50;2.28;;;0.70;;
35324;SDS011;35135;47.510;19.036;2022-09-09T16:56:17;1.55;;;0.68;;
35324;SDS011;35135;47.510;19.036;2022-09-09T16:58:52;1.08;;;0.75;;
35324;SDS011;35135;47.510;19.036;2022-09-09T17:01:26;0.60;;;0.60;;
35324;SDS011;35135;47.510;19.036;2022-09-09T17:03:54;2.45;;;0.70;;
35324;SDS011;35135;47.510;19.036;2022-09-09T17:06:21;1.10;;;0.70;;
35324;SDS011;35135;47.510;19.036;2022-09-09T17:08:53;0.90;;;0.70;;
35324;SDS011;35135;47.510;19.036;2022-09-09T17:11:20;2.75;;;0.90;;
35324;SDS011;35135;47.510;19.036;2022-09-09T17:13:48;1.63;;;0.80;;
35324;SDS011;35135;47.510;19.036;2022-09-09T17:16:16;2.08;;;0.85;;
35324;SDS011;35135;47.510;19.036;2022-09-09T17:18:54;2.13;;;1.40;;
35324;SDS011;35135;47.510;19.036;2022-09-09T17:21:21;4.47;;;1.45;;
35324;SDS011;35135;47.510;19.036;2022-09-09T17:23:50;2.20;;;1.55;;
35324;SDS011;35135;47.510;19.036;2022-09-09T17:26:19;4.25;;;1.50;;
35324;SDS011;35135;47.510;19.036;2022-09-09T17:28:48;2.47;;;1.45;;
35324;SDS011;35135;47.510;19.036;2022-09-09T17:31:16;2.33;;;1.10;;
35324;SDS011;35135;47.510;19.036;2022-09-09T17:33:49;5.20;;;1.27;;
35324;SDS011;35135;47.510;19.036;2022-09-09T17:38:48;3.88;;;1.02;;
35324;SDS011;35135;47.510;19.036;2022-09-09T17:41:19;2.10;;;1.05;;
35324;SDS011;35135;47.510;19.036;2022-09-09T17:43:50;1.98;;;1.08;;
35324;SDS011;35135;47.510;19.036;2022-09-09T17:46:21;2.25;;;1.10;;
35324;SDS011;35135;47.510;19.036;2022-09-09T17:48:59;3.53;;;1.20;;
35324;SDS011;35135;47.510;19.036;2022-09-09T17:51:28;1.95;;;1.20;;
35324;SDS011;35135;47.510;19.036;2022-09-09T17:53:59;2.03;;;1.33;;
35324;SDS011;35135;47.510;19.036;2022-09-09T17:56:36;2.85;;;1.60;;
35324;SDS011;35135;47.510;19.036;2022-09-09T17:59:06;2.75;;;1.30;;
35324;SDS011;35135;47.510;19.036;2022-09-09T18:01:35;1.75;;;1.13;;
35324;SDS011;35135;47.510;19.036;2022-09-09T18:04:05;3.30;;;1.20;;